sensor_id;sensor_type;location;lat;lon;timestamp;pressure;altitude;pressure_sealevel;temperature;humidity
27210;BME280;14721;42.668;23.386;2023-02-19T00:01:10;95580.09;;;7.35;62.75
27210;BME280;14721;42.668;23.386;2023-02-19T00:03:37;95568.84;;;7.30;62.51
27210;BME280;14721;42.668;23.386;2023-02-19T00:06:04;95575.38;;;7.25;62.95
27210;BME280;14721;42.668;23.386;2023-02-19T00:08:33;95574.59;;;7.38;62.71
27210;BME280;14721;42.668;23.386;2023-02-19T00:11:04;95568.59;;;7.35;62.68
27210;BME280;14721;42.668;23.386;2023-02-19T00:13:34;95559.25;;;7.28;62.29
27210;BME280;14721;42.668;23.386;2023-02-19T00:16:05;95556.44;;;7.31;62.45
27210;BME280;14721;42.668;23.386;2023-02-19T00:18:31;95560.19;;;7.27;62.61
27210;BME280;14721;42.668;23.386;2023-02-19T00:20:56;95560.78;;;7.32;62.72
27210;BME280;14721;42.668;23.386;2023-02-19T00:23:22;95553.09;;;7.12;62.62
27210;BME280;14721;42.668;23.386;2023-02-19T00:25:48;95564.75;;;7.25;63.02
27210;BME280;14721;42.668;23.386;2023-02-19T00:28:13;95557.09;;;7.34;63.18
27210;BME280;14721;42.668;23.386;2023-02-19T00:30:39;95562.63;;;7.00;63.96
27210;BME280;14721;42.668;23.386;2023-02-19T00:33:05;95543.34;;;7.12;62.71
27210;BME280;14721;42.668;23.386;2023-02-19T00:35:34;95554.47;;;7.03;63.36
27210;BME280;14721;42.668;23.386;2023-02-19T00:38:01;95549.72;;;7.24;63.11
27210;BME280;14721;42.668;23.386;2023-02-19T00:40:27;95543.00;;;7.03;63.00
27210;BME280;14721;42.668;23.386;2023-02-19T00:42:52;95556.31;;;6.87;63.72
27210;BME280;14721;42.668;23.386;2023-02-19T00:45:18;95553.47;;;6.75;64.88
27210;BME280;14721;42.668;23.386;2023-02-19T00:47:44;95545.75;;;6.70;64.28
27210;BME280;14721;42.668;23.386;2023-02-19T00:50:10;95543.53;;;6.78;64.98
27210;BME280;14721;42.668;23.386;2023-02-19T00:52:36;95540.19;;;6.75;64.41
27210;BME280;14721;42.668;23.386;2023-02-19T00:55:02;95529.13;;;6.67;64.79
27210;BME280;14721;42.668;23.386;2023-02-19T00:57:28;95528.19;;;6.52;65.91
27210;BME280;14721;42.668;23.386;2023-02-19T00:59:53;95527.41;;;6.50;65.83
27210;BME280;14721;42.668;23.386;2023-02-19T01:02:19;95533.50;;;6.52;66.77
27210;BME280;14721;42.668;23.386;2023-02-19T01:04:44;95530.75;;;6.38;66.78
27210;BME280;14721;42.668;23.386;2023-02-19T01:07:10;95537.00;;;6.37;66.55
27210;BME280;14721;42.668;23.386;2023-02-19T01:09:36;95537.03;;;6.20;67.03
27210;BME280;14721;42.668;23.386;2023-02-19T01:12:04;95532.19;;;6.28;67.29
27210;BME280;14721;42.668;23.386;2023-02-19T01:14:30;95534.78;;;6.45;66.93
27210;BME280;14721;42.668;23.386;2023-02-19T01:16:56;95535.28;;;6.36;66.90
27210;BME280;14721;42.668;23.386;2023-02-19T01:19:21;95528.44;;;6.48;66.42
27210;BME280;14721;42.668;23.386;2023-02-19T01:21:46;95522.78;;;6.38;67.01
27210;BME280;14721;42.668;23.386;2023-02-19T01:24:12;95525.13;;;6.12;67.47
27210;BME280;14721;42.668;23.386;2023-02-19T01:26:38;95530.19;;;6.16;67.61
27210;BME280;14721;42.668;23.386;2023-02-19T01:29:04;95538.69;;;6.23;67.53
27210;BME280;14721;42.668;23.386;2023-02-19T01:31:30;95540.22;;;6.27;67.49
27210;BME280;14721;42.668;23.386;2023-02-19T01:33:58;95541.59;;;6.34;66.98
27210;BME280;14721;42.668;23.386;2023-02-19T01:36:25;95543.91;;;6.24;67.52
27210;BME280;14721;42.668;23.386;2023-02-19T01:38:51;95549.63;;;6.17;67.88
27210;BME280;14721;42.668;23.386;2023-02-19T01:41:20;95554.41;;;6.10;67.95
27210;BME280;14721;42.668;23.386;2023-02-19T01:46:25;95574.16;;;6.05;68.46
27210;BME280;14721;42.668;23.386;2023-02-19T01:48:51;95571.28;;;6.09;68.62
27210;BME280;14721;42.668;23.386;2023-02-19T01:51:18;95576.91;;;6.19;68.35
27210;BME280;14721;42.668;23.386;2023-02-19T01:53:51;95570.44;;;6.24;67.94
27210;BME280;14721;42.668;23.386;2023-02-19T01:56:19;95573.19;;;6.23;67.69
27210;BME280;14721;42.668;23.386;2023-02-19T01:58:45;95578.56;;;6.21;67.66
27210;BME280;14721;42.668;23.386;2023-02-19T02:01:11;95571.03;;;6.29;67.27
27210;BME280;14721;42.668;23.386;2023-02-19T02:03:38;95566.28;;;6.36;66.65
27210;BME280;14721;42.668;23.386;2023-02-19T02:06:10;95565.94;;;6.42;66.82
27210;BME280;14721;42.668;23.386;2023-02-19T02:08:39;95558.09;;;6.23;66.47
27210;BME280;14721;42.668;23.386;2023-02-19T02:11:23;95568.97;;;6.19;66.92
27210;BME280;14721;42.668;23.386;2023-02-19T02:13:49;95568.38;;;6.29;66.54
27210;BME280;14721;42.668;23.386;2023-02-19T02:16:23;95568.63;;;6.09;67.75
27210;BME280;14721;42.668;23.386;2023-02-19T02:19:29;95567.34;;;6.16;67.71
27210;BME280;14721;42.668;23.386;2023-02-19T02:22:17;95574.31;;;6.02;67.68
27210;BME280;14721;42.668;23.386;2023-02-19T02:25:01;95561.47;;;5.94;68.20
27210;BME280;14721;42.668;23.386;2023-02-19T02:33:37;95559.25;;;6.02;67.07
27210;BME280;14721;42.668;23.386;2023-02-19T02:36:21;95563.16;;;6.12;67.11
27210;BME280;14721;42.668;23.386;2023-02-19T02:38:49;95567.50;;;6.13;67.31
27210;BME280;14721;42.668;23.386;2023-02-19T02:41:19;95554.78;;;6.20;66.76
27210;BME280;14721;42.668;23.386;2023-02-19T02:43:45;95559.91;;;6.23;67.02
27210;BME280;14721;42.668;23.386;2023-02-19T02:46:12;95558.09;;;6.23;66.85
27210;BME280;14721;42.668;23.386;2023-02-19T02:48:52;95552.47;;;6.29;66.31
27210;BME280;14721;42.668;23.386;2023-02-19T02:51:42;95556.78;;;6.47;65.82
27210;BME280;14721;42.668;23.386;2023-02-19T02:54:23;95553.44;;;6.59;65.49
27210;BME280;14721;42.668;23.386;2023-02-19T02:57:09;95556.44;;;6.53;65.66
27210;BME280;14721;42.668;23.386;2023-02-19T02:59:39;95559.88;;;6.55;65.38
27210;BME280;14721;42.668;23.386;2023-02-19T03:02:22;95568.34;;;6.46;65.70
27210;BME280;14721;42.668;23.386;2023-02-19T03:07:41;95578.00;;;6.47;66.51
27210;BME280;14721;42.668;23.386;2023-02-19T03:10:12;95583.81;;;6.38;66.48
27210;BME280;14721;42.668;23.386;2023-02-19T03:12:39;95597.25;;;6.35;66.52
27210;BME280;14721;42.668;23.386;2023-02-19T03:15:32;95584.78;;;6.20;66.71
27210;BME280;14721;42.668;23.386;2023-02-19T03:18:18;95582.84;;;5.91;67.53
27210;BME280;14721;42.668;23.386;2023-02-19T03:21:02;95584.06;;;5.84;67.95
27210;BME280;14721;42.668;23.386;2023-02-19T03:23:31;95594.59;;;5.86;68.66
27210;BME280;14721;42.668;23.386;2023-02-19T03:26:33;95592.91;;;5.85;68.21
27210;BME280;14721;42.668;23.386;2023-02-19T03:29:02;95597.34;;;5.84;68.86
27210;BME280;14721;42.668;23.386;2023-02-19T03:31:50;95604.03;;;5.74;69.39
27210;BME280;14721;42.668;23.386;2023-02-19T03:34:28;95605.72;;;5.75;69.40
27210;BME280;14721;42.668;23.386;2023-02-19T03:37:09;95616.09;;;5.79;69.03
27210;BME280;14721;42.668;23.386;2023-02-19T03:39:37;95618.91;;;5.59;70.51
27210;BME280;14721;42.668;23.386;2023-02-19T03:47:31;95630.81;;;5.51;70.81
27210;BME280;14721;42.668;23.386;2023-02-19T03:50:20;95633.16;;;5.57;70.40
27210;BME280;14721;42.668;23.386;2023-02-19T03:55:43;95635.50;;;5.46;71.15
27210;BME280;14721;42.668;23.386;2023-02-19T03:58:19;95641.19;;;5.55;71.00
27210;BME280;14721;42.668;23.386;2023-02-19T04:06:04;95640.50;;;5.52;70.73
27210;BME280;14721;42.668;23.386;2023-02-19T04:08:34;95633.69;;;5.29;71.66
27210;BME280;14721;42.668;23.386;2023-02-19T04:11:02;95646.47;;;5.38;72.03
27210;BME280;14721;42.668;23.386;2023-02-19T04:13:45;95643.00;;;5.55;71.00
27210;BME280;14721;42.668;23.386;2023-02-19T04:16:19;95640.53;;;5.33;71.61
27210;BME280;14721;42.668;23.386;2023-02-19T04:18:48;95644.53;;;5.42;71.82
27210;BME280;14721;42.668;23.386;2023-02-19T04:21:18;95647.81;;;5.47;71.80
27210;BME280;14721;42.668;23.386;2023-02-19T04:23:45;95647.84;;;5.64;71.28
27210;BME280;14721;42.668;23.386;2023-02-19T04:26:11;95649.38;;;5.51;70.86
27210;BME280;14721;42.668;23.386;2023-02-19T04:28:39;95642.59;;;5.45;71.61
27210;BME280;14721;42.668;23.386;2023-02-19T04:31:07;95642.09;;;5.37;71.44
27210;BME280;14721;42.668;23.386;2023-02-19T04:33:33;95648.84;;;5.44;72.05
27210;BME280;14721;42.668;23.386;2023-02-19T04:35:59;95648.84;;;5.44;71.63
27210;BME280;14721;42.668;23.386;2023-02-19T04:38:24;95655.31;;;5.56;71.05
27210;BME280;14721;42.668;23.386;2023-02-19T04:40:50;95654.28;;;5.41;71.53
27210;BME280;14721;42.668;23.386;2023-02-19T04:43:17;95659.06;;;5.52;71.60
27210;BME280;14721;42.668;23.386;2023-02-19T04:45:43;95654.84;;;5.65;70.82
27210;BME280;14721;42.668;23.386;2023-02-19T04:48:09;95651.47;;;5.61;70.69
27210;BME280;14721;42.668;23.386;2023-02-19T04:50:37;95651.41;;;5.63;70.64
27210;BME280;14721;42.668;23.386;2023-02-19T04:53:04;95652.59;;;5.74;70.04
27210;BME280;14721;42.668;23.386;2023-02-19T04:55:29;95655.09;;;5.77;70.43
27210;BME280;14721;42.668;23.386;2023-02-19T04:57:55;95654.84;;;5.84;69.74
27210;BME280;14721;42.668;23.386;2023-02-19T05:00:20;95655.66;;;5.84;70.23
27210;BME280;14721;42.668;23.386;2023-02-19T05:02:46;95667.69;;;5.91;69.69
27210;BME280;14721;42.668;23.386;2023-02-19T05:05:11;95666.34;;;5.82;69.94
27210;BME280;14721;42.668;23.386;2023-02-19T05:07:37;95662.16;;;5.96;69.80
27210;BME280;14721;42.668;23.386;2023-02-19T05:10:03;95660.75;;;5.89;69.61
27210;BME280;14721;42.668;23.386;2023-02-19T05:12:29;95658.56;;;5.97;69.85
27210;BME280;14721;42.668;23.386;2023-02-19T05:14:55;95663.16;;;5.93;69.90
27210;BME280;14721;42.668;23.386;2023-02-19T05:17:21;95659.44;;;5.97;69.96
27210;BME280;14721;42.668;23.386;2023-02-19T05:19:50;95658.41;;;6.00;69.60
27210;BME280;14721;42.668;23.386;2023-02-19T05:22:15;95657.69;;;6.13;69.27
27210;BME280;14721;42.668;23.386;2023-02-19T05:24:41;95663.25;;;6.09;69.25
27210;BME280;14721;42.668;23.386;2023-02-19T05:27:06;95655.44;;;6.06;69.18
27210;BME280;14721;42.668;23.386;2023-02-19T05:29:32;95665.41;;;6.18;69.52
27210;BME280;14721;42.668;23.386;2023-02-19T05:31:58;95675.78;;;6.22;68.31
27210;BME280;14721;42.668;23.386;2023-02-19T05:34:23;95675.16;;;6.34;68.78
27210;BME280;14721;42.668;23.386;2023-02-19T05:36:49;95678.88;;;6.47;67.75
27210;BME280;14721;42.668;23.386;2023-02-19T05:39:14;95684.00;;;6.35;67.89
27210;BME280;14721;42.668;23.386;2023-02-19T05:41:40;95697.88;;;6.23;68.36
27210;BME280;14721;42.668;23.386;2023-02-19T05:44:09;95693.25;;;6.26;68.46
27210;BME280;14721;42.668;23.386;2023-02-19T05:46:34;95690.59;;;6.26;68.43
27210;BME280;14721;42.668;23.386;2023-02-19T05:49:00;95695.84;;;6.28;68.85
27210;BME280;14721;42.668;23.386;2023-02-19T05:51:26;95696.38;;;6.34;68.84
27210;BME280;14721;42.668;23.386;2023-02-19T05:53:52;95681.44;;;6.49;68.48
27210;BME280;14721;42.668;23.386;2023-02-19T05:56:37;95697.56;;;6.78;67.33
27210;BME280;14721;42.668;23.386;2023-02-19T05:59:24;95692.34;;;6.92;66.30
27210;BME280;14721;42.668;23.386;2023-02-19T06:01:51;95696.19;;;7.35;65.54
27210;BME280;14721;42.668;23.386;2023-02-19T06:04:18;95699.63;;;7.98;64.51
27210;BME280;14721;42.668;23.386;2023-02-19T06:06:45;95695.44;;;8.53;62.07
27210;BME280;14721;42.668;23.386;2023-02-19T06:09:15;95706.31;;;9.06;60.45
27210;BME280;14721;42.668;23.386;2023-02-19T06:11:40;95719.72;;;9.61;58.46
27210;BME280;14721;42.668;23.386;2023-02-19T06:14:07;95706.84;;;9.94;57.75
27210;BME280;14721;42.668;23.386;2023-02-19T06:16:35;95710.81;;;10.15;56.43
27210;BME280;14721;42.668;23.386;2023-02-19T06:19:01;95714.66;;;10.23;55.72
27210;BME280;14721;42.668;23.386;2023-02-19T06:21:28;95699.50;;;10.24;54.91
27210;BME280;14721;42.668;23.386;2023-02-19T06:23:53;95704.34;;;10.44;55.09
27210;BME280;14721;42.668;23.386;2023-02-19T06:26:21;95705.03;;;10.72;54.45
27210;BME280;14721;42.668;23.386;2023-02-19T06:28:48;95696.72;;;10.89;53.49
27210;BME280;14721;42.668;23.386;2023-02-19T06:31:15;95699.78;;;10.71;53.26
27210;BME280;14721;42.668;23.386;2023-02-19T06:33:44;95707.94;;;10.82;53.16
27210;BME280;14721;42.668;23.386;2023-02-19T06:36:15;95703.75;;;10.90;52.52
27210;BME280;14721;42.668;23.386;2023-02-19T06:38:41;95712.13;;;10.98;52.28
27210;BME280;14721;42.668;23.386;2023-02-19T06:41:08;95687.41;;;10.95;52.61
27210;BME280;14721;42.668;23.386;2023-02-19T06:43:34;95710.06;;;11.14;52.69
27210;BME280;14721;42.668;23.386;2023-02-19T06:46:01;95713.78;;;11.50;51.10
27210;BME280;14721;42.668;23.386;2023-02-19T06:48:29;95707.53;;;11.74;50.17
27210;BME280;14721;42.668;23.386;2023-02-19T06:50:55;95717.09;;;12.02;49.79
27210;BME280;14721;42.668;23.386;2023-02-19T06:53:21;95715.63;;;12.21;49.93
27210;BME280;14721;42.668;23.386;2023-02-19T06:56:04;95716.19;;;12.61;48.26
27210;BME280;14721;42.668;23.386;2023-02-19T06:58:31;95715.97;;;13.09;47.50
27210;BME280;14721;42.668;23.386;2023-02-19T07:00:57;95721.94;;;13.24;46.59
27210;BME280;14721;42.668;23.386;2023-02-19T07:03:23;95720.97;;;13.36;45.44
27210;BME280;14721;42.668;23.386;2023-02-19T07:05:50;95731.00;;;13.45;45.26
27210;BME280;14721;42.668;23.386;2023-02-19T07:08:16;95718.56;;;13.66;44.79
27210;BME280;14721;42.668;23.386;2023-02-19T07:10:43;95720.94;;;14.13;44.06
27210;BME280;14721;42.668;23.386;2023-02-19T07:13:08;95714.44;;;14.16;44.08
27210;BME280;14721;42.668;23.386;2023-02-19T07:15:34;95716.78;;;14.31;44.03
27210;BME280;14721;42.668;23.386;2023-02-19T07:18:00;95695.75;;;14.88;42.97
27210;BME280;14721;42.668;23.386;2023-02-19T07:20:26;95705.19;;;15.45;41.90
27210;BME280;14721;42.668;23.386;2023-02-19T07:22:51;95684.16;;;15.89;40.11
27210;BME280;14721;42.668;23.386;2023-02-19T07:25:17;95689.75;;;16.26;39.61
27210;BME280;14721;42.668;23.386;2023-02-19T07:27:42;95684.31;;;16.46;39.00
27210;BME280;14721;42.668;23.386;2023-02-19T07:30:09;95665.84;;;16.89;38.22
27210;BME280;14721;42.668;23.386;2023-02-19T07:32:35;95666.66;;;17.19;36.93
27210;BME280;14721;42.668;23.386;2023-02-19T07:35:01;95677.06;;;17.69;36.91
27210;BME280;14721;42.668;23.386;2023-02-19T07:37:27;95668.25;;;17.94;36.30
27210;BME280;14721;42.668;23.386;2023-02-19T07:39:53;95662.34;;;18.35;35.13
27210;BME280;14721;42.668;23.386;2023-02-19T07:42:19;95674.84;;;18.36;34.84
27210;BME280;14721;42.668;23.386;2023-02-19T07:44:45;95665.47;;;18.58;34.69
27210;BME280;14721;42.668;23.386;2023-02-19T07:47:10;95673.59;;;18.31;34.71
27210;BME280;14721;42.668;23.386;2023-02-19T07:49:36;95668.66;;;18.71;34.30
27210;BME280;14721;42.668;23.386;2023-02-19T07:52:01;95669.25;;;19.00;33.76
27210;BME280;14721;42.668;23.386;2023-02-19T07:54:27;95669.00;;;19.11;33.58
27210;BME280;14721;42.668;23.386;2023-02-19T07:56:52;95665.03;;;19.23;33.80
27210;BME280;14721;42.668;23.386;2023-02-19T07:59:18;95673.84;;;19.43;33.15
27210;BME280;14721;42.668;23.386;2023-02-19T08:01:45;95671.78;;;19.37;32.93
27210;BME280;14721;42.668;23.386;2023-02-19T08:04:32;95667.53;;;19.34;32.72
27210;BME280;14721;42.668;23.386;2023-02-19T08:07:00;95666.97;;;19.48;32.68
27210;BME280;14721;42.668;23.386;2023-02-19T08:09:26;95662.41;;;19.82;31.92
27210;BME280;14721;42.668;23.386;2023-02-19T08:11:51;95663.56;;;20.05;31.68
27210;BME280;14721;42.668;23.386;2023-02-19T08:14:35;95662.03;;;19.77;31.71
27210;BME280;14721;42.668;23.386;2023-02-19T08:17:01;95669.44;;;19.42;32.00
27210;BME280;14721;42.668;23.386;2023-02-19T08:19:27;95665.00;;;19.92;31.53
27210;BME280;14721;42.668;23.386;2023-02-19T08:21:53;95663.44;;;20.15;31.10
27210;BME280;14721;42.668;23.386;2023-02-19T08:24:18;95658.25;;;19.96;31.15
27210;BME280;14721;42.668;23.386;2023-02-19T08:26:44;95668.88;;;19.89;31.44
27210;BME280;14721;42.668;23.386;2023-02-19T08:29:09;95665.72;;;19.43;32.18
27210;BME280;14721;42.668;23.386;2023-02-19T08:31:35;95654.94;;;18.90;32.78
27210;BME280;14721;42.668;23.386;2023-02-19T08:34:01;95658.13;;;18.50;33.52
27210;BME280;14721;42.668;23.386;2023-02-19T08:36:27;95669.59;;;18.35;33.88
27210;BME280;14721;42.668;23.386;2023-02-19T08:38:52;95674.66;;;17.57;34.95
27210;BME280;14721;42.668;23.386;2023-02-19T08:41:20;95666.06;;;17.25;35.36
27210;BME280;14721;42.668;23.386;2023-02-19T08:43:47;95666.66;;;17.09;36.03
27210;BME280;14721;42.668;23.386;2023-02-19T08:46:13;95658.75;;;16.50;37.09
27210;BME280;14721;42.668;23.386;2023-02-19T08:48:39;95659.25;;;16.25;37.32
27210;BME280;14721;42.668;23.386;2023-02-19T08:51:07;95655.97;;;16.03;37.88
27210;BME280;14721;42.668;23.386;2023-02-19T08:53:34;95646.00;;;15.94;38.33
27210;BME280;14721;42.668;23.386;2023-02-19T08:56:12;95648.34;;;15.68;38.77
27210;BME280;14721;42.668;23.386;2023-02-19T08:58:38;95660.75;;;15.60;39.17
27210;BME280;14721;42.668;23.386;2023-02-19T09:01:12;95652.03;;;15.37;39.71
27210;BME280;14721;42.668;23.386;2023-02-19T09:03:38;95647.31;;;15.30;39.93
27210;BME280;14721;42.668;23.386;2023-02-19T09:06:04;95643.19;;;15.05;40.59
27210;BME280;14721;42.668;23.386;2023-02-19T09:08:30;95628.97;;;14.93;40.97
27210;BME280;14721;42.668;23.386;2023-02-19T09:11:03;95625.53;;;14.91;41.18
27210;BME280;14721;42.668;23.386;2023-02-19T09:13:31;95624.94;;;14.88;41.70
27210;BME280;14721;42.668;23.386;2023-02-19T09:15:57;95609.41;;;14.91;41.66
27210;BME280;14721;42.668;23.386;2023-02-19T09:18:23;95613.25;;;14.98;41.66
27210;BME280;14721;42.668;23.386;2023-02-19T09:20:49;95611.84;;;15.25;41.87
27210;BME280;14721;42.668;23.386;2023-02-19T09:23:15;95602.69;;;15.37;41.65
27210;BME280;14721;42.668;23.386;2023-02-19T09:25:41;95601.19;;;15.44;41.33
27210;BME280;14721;42.668;23.386;2023-02-19T09:28:06;95601.97;;;15.35;41.67
27210;BME280;14721;42.668;23.386;2023-02-19T09:30:32;95604.47;;;15.47;41.50
27210;BME280;14721;42.668;23.386;2023-02-19T09:32:58;95602.94;;;15.64;41.32
27210;BME280;14721;42.668;23.386;2023-02-19T09:35:23;95604.19;;;15.50;41.88
27210;BME280;14721;42.668;23.386;2023-02-19T09:37:49;95606.47;;;15.55;41.92
27210;BME280;14721;42.668;23.386;2023-02-19T09:40:15;95604.19;;;15.60;41.90
27210;BME280;14721;42.668;23.386;2023-02-19T09:42:46;95603.38;;;15.69;41.86
27210;BME280;14721;42.668;23.386;2023-02-19T09:45:18;95605.09;;;15.79;41.80
27210;BME280;14721;42.668;23.386;2023-02-19T09:47:46;95600.19;;;15.94;41.80
27210;BME280;14721;42.668;23.386;2023-02-19T09:50:17;95601.75;;;16.06;41.35
27210;BME280;14721;42.668;23.386;2023-02-19T09:52:50;95595.22;;;16.08;41.21
27210;BME280;14721;42.668;23.386;2023-02-19T09:55:34;95585.75;;;16.04;41.56
27210;BME280;14721;42.668;23.386;2023-02-19T10:00:51;95586.16;;;16.19;41.10
27210;BME280;14721;42.668;23.386;2023-02-19T10:03:37;95561.91;;;16.28;40.40
27210;BME280;14721;42.668;23.386;2023-02-19T10:06:12;95575.81;;;16.43;40.36
27210;BME280;14721;42.668;23.386;2023-02-19T10:08:40;95562.94;;;16.46;39.99
27210;BME280;14721;42.668;23.386;2023-02-19T10:11:06;95559.91;;;16.59;39.38
27210;BME280;14721;42.668;23.386;2023-02-19T10:13:46;95545.16;;;16.63;39.29
27210;BME280;14721;42.668;23.386;2023-02-19T10:16:20;95550.22;;;16.75;39.20
27210;BME280;14721;42.668;23.386;2023-02-19T10:18:48;95545.25;;;16.71;38.90
27210;BME280;14721;42.668;23.386;2023-02-19T10:21:19;95532.06;;;16.68;39.13
27210;BME280;14721;42.668;23.386;2023-02-19T10:23:50;95525.84;;;16.67;38.61
27210;BME280;14721;42.668;23.386;2023-02-19T10:26:18;95515.28;;;16.74;38.76
27210;BME280;14721;42.668;23.386;2023-02-19T10:28:43;95516.13;;;16.84;38.71
27210;BME280;14721;42.668;23.386;2023-02-19T10:31:16;95509.31;;;16.80;38.35
27210;BME280;14721;42.668;23.386;2023-02-19T10:33:56;95510.69;;;16.93;38.25
27210;BME280;14721;42.668;23.386;2023-02-19T10:36:30;95495.22;;;16.86;38.17
27210;BME280;14721;42.668;23.386;2023-02-19T10:38:56;95497.41;;;16.82;38.03
27210;BME280;14721;42.668;23.386;2023-02-19T10:41:23;95497.56;;;16.71;38.03
27210;BME280;14721;42.668;23.386;2023-02-19T10:43:53;95501.13;;;16.72;38.04
27210;BME280;14721;42.668;23.386;2023-02-19T10:46:24;95489.47;;;16.62;38.10
27210;BME280;14721;42.668;23.386;2023-02-19T10:51:19;95468.75;;;16.62;38.21
27210;BME280;14721;42.668;23.386;2023-02-19T10:54:03;95473.34;;;16.89;37.66
27210;BME280;14721;42.668;23.386;2023-02-19T10:56:28;95459.75;;;16.81;37.68
27210;BME280;14721;42.668;23.386;2023-02-19T10:59:33;95467.56;;;16.84;37.58
27210;BME280;14721;42.668;23.386;2023-02-19T11:02:00;95463.69;;;16.86;37.47
27210;BME280;14721;42.668;23.386;2023-02-19T11:04:33;95454.75;;;16.86;37.48
27210;BME280;14721;42.668;23.386;2023-02-19T11:07:10;95448.75;;;16.92;37.46
27210;BME280;14721;42.668;23.386;2023-02-19T11:09:41;95435.97;;;16.94;36.94
27210;BME280;14721;42.668;23.386;2023-02-19T11:12:11;95437.56;;;16.87;37.39
27210;BME280;14721;42.668;23.386;2023-02-19T11:14:41;95432.19;;;16.87;37.24
27210;BME280;14721;42.668;23.386;2023-02-19T11:17:25;95431.59;;;16.93;37.17
27210;BME280;14721;42.668;23.386;2023-02-19T11:20:07;95420.63;;;16.95;36.90
27210;BME280;14721;42.668;23.386;2023-02-19T11:22:41;95413.47;;;17.03;37.07
27210;BME280;14721;42.668;23.386;2023-02-19T11:32:55;95395.31;;;17.40;36.04
27210;BME280;14721;42.668;23.386;2023-02-19T11:35:22;95391.25;;;17.36;36.13
27210;BME280;14721;42.668;23.386;2023-02-19T11:38:04;95388.84;;;17.33;35.87
27210;BME280;14721;42.668;23.386;2023-02-19T11:40:51;95389.75;;;17.24;36.23
27210;BME280;14721;42.668;23.386;2023-02-19T11:46:21;95364.53;;;17.16;36.33
27210;BME280;14721;42.668;23.386;2023-02-19T11:51:45;95360.03;;;17.07;36.51
27210;BME280;14721;42.668;23.386;2023-02-19T11:57:24;95357.22;;;17.26;36.42
27210;BME280;14721;42.668;23.386;2023-02-19T12:02:54;95347.28;;;17.44;35.63
27210;BME280;14721;42.668;23.386;2023-02-19T12:08:46;95323.56;;;17.38;35.92
27210;BME280;14721;42.668;23.386;2023-02-19T12:11:36;95315.63;;;17.54;35.56
27210;BME280;14721;42.668;23.386;2023-02-19T12:22:33;95303.28;;;17.94;33.88
27210;BME280;14721;42.668;23.386;2023-02-19T12:35:48;95271.00;;;18.18;32.80
27210;BME280;14721;42.668;23.386;2023-02-19T12:38:30;95266.78;;;18.24;32.75
27210;BME280;14721;42.668;23.386;2023-02-19T12:43:29;95246.25;;;18.39;32.03
27210;BME280;14721;42.668;23.386;2023-02-19T12:49:17;95243.03;;;18.35;33.14
27210;BME280;14721;42.668;23.386;2023-02-19T12:51:40;95228.63;;;18.35;32.84
27210;BME280;14721;42.668;23.386;2023-02-19T12:54:22;95226.16;;;18.41;33.68
27210;BME280;14721;42.668;23.386;2023-02-19T12:57:12;95226.16;;;18.41;34.37
27210;BME280;14721;42.668;23.386;2023-02-19T12:59:43;95219.03;;;18.40;34.52
27210;BME280;14721;42.668;23.386;2023-02-19T13:07:32;95205.44;;;18.24;34.06
27210;BME280;14721;42.668;23.386;2023-02-19T13:12:52;95206.13;;;18.34;34.23
27210;BME280;14721;42.668;23.386;2023-02-19T13:15:39;95197.19;;;18.34;34.32
27210;BME280;14721;42.668;23.386;2023-02-19T13:18:33;95192.44;;;18.28;34.06
27210;BME280;14721;42.668;23.386;2023-02-19T13:20:56;95187.38;;;18.33;34.01
27210;BME280;14721;42.668;23.386;2023-02-19T13:23:26;95195.03;;;18.37;33.94
27210;BME280;14721;42.668;23.386;2023-02-19T13:26:24;95197.72;;;18.37;33.71
27210;BME280;14721;42.668;23.386;2023-02-19T13:35:40;95169.28;;;18.33;33.68
27210;BME280;14721;42.668;23.386;2023-02-19T13:38:14;95174.09;;;18.39;33.29
27210;BME280;14721;42.668;23.386;2023-02-19T13:40:42;95167.47;;;18.42;33.03
27210;BME280;14721;42.668;23.386;2023-02-19T13:45:57;95161.78;;;18.53;33.42
27210;BME280;14721;42.668;23.386;2023-02-19T13:48:30;95160.28;;;18.66;33.32
27210;BME280;14721;42.668;23.386;2023-02-19T14:09:48;95146.16;;;17.97;32.76
27210;BME280;14721;42.668;23.386;2023-02-19T14:19:46;95136.91;;;18.08;32.67
27210;BME280;14721;42.668;23.386;2023-02-19T14:28:02;95125.03;;;17.85;34.79
27210;BME280;14721;42.668;23.386;2023-02-19T14:30:31;95115.03;;;17.85;34.92
27210;BME280;14721;42.668;23.386;2023-02-19T14:32:57;95125.03;;;17.93;35.02
27210;BME280;14721;42.668;23.386;2023-02-19T14:35:51;95117.44;;;17.96;34.81
27210;BME280;14721;42.668;23.386;2023-02-19T14:38:21;95121.03;;;18.05;35.03
27210;BME280;14721;42.668;23.386;2023-02-19T14:40:49;95122.88;;;18.04;35.21
27210;BME280;14721;42.668;23.386;2023-02-19T14:43:18;95103.78;;;18.06;34.77
27210;BME280;14721;42.668;23.386;2023-02-19T14:46:11;95108.47;;;17.96;35.22
27210;BME280;14721;42.668;23.386;2023-02-19T14:48:46;95106.16;;;18.01;35.23
27210;BME280;14721;42.668;23.386;2023-02-19T14:53:49;95093.63;;;17.92;35.41
27210;BME280;14721;42.668;23.386;2023-02-19T14:56:21;95093.94;;;17.89;35.50
27210;BME280;14721;42.668;23.386;2023-02-19T15:01:36;95099.88;;;17.92;35.41
27210;BME280;14721;42.668;23.386;2023-02-19T15:04:02;95096.81;;;17.87;35.61
27210;BME280;14721;42.668;23.386;2023-02-19T15:06:27;95096.38;;;18.08;35.36
27210;BME280;14721;42.668;23.386;2023-02-19T15:08:58;95092.25;;;17.96;35.54
27210;BME280;14721;42.668;23.386;2023-02-19T15:11:27;95086.19;;;17.94;35.56
27210;BME280;14721;42.668;23.386;2023-02-19T15:14:03;95089.56;;;17.88;35.64
27210;BME280;14721;42.668;23.386;2023-02-19T15:16:30;95089.34;;;17.81;35.88
27210;BME280;14721;42.668;23.386;2023-02-19T15:18:58;95085.44;;;17.76;35.89
27210;BME280;14721;42.668;23.386;2023-02-19T15:21:27;95083.72;;;17.67;35.90
27210;BME280;14721;42.668;23.386;2023-02-19T15:24:00;95085.72;;;17.65;35.92